Time;durP1;ratioP1;P1;durP2;ratioP2;P2;SDS_P1;SDS_P2;PMS_P1;PMS_P2;Temp;Humidity;BMP_temperature;BMP_pressure;BME280_temperature;BME280_humidity;BME280_pressure;Samples;Min_cycle;Max_cycle;Signal;HPM_P1;HPM_P2
2022/12/09 09:24:44;;;;;;;2.15;2.05;;;;;;;4.03;100.00;98896.59;6158420;23;20049;-96
2022/12/09 09:27:10;;;;;;;1.08;0.98;;;;;;;4.08;100.00;98899.63;6107494;23;20020;-95
2022/12/09 09:29:36;;;;;;;0.80;0.70;;;;;;;4.12;100.00;98899.56;6107430;23;20005;-96
2022/12/09 09:32:02;;;;;;;0.73;0.40;;;;;;;4.22;100.00;98901.31;6109898;23;20025;-95
2022/12/09 09:34:27;;;;;;;2.92;2.35;;;;;;;4.11;100.00;98884.28;6114269;23;20013;-95
2022/12/09 09:36:54;;;;;;;4.03;2.30;;;;;;;4.11;100.00;98879.56;6112312;23;20051;-95
2022/12/09 09:39:20;;;;;;;3.13;1.85;;;;;;;4.15;100.00;98863.81;6112656;23;20021;-95
2022/12/09 09:42:01;;;;;;;0.80;0.80;;;;;;;4.24;100.00;98868.75;6115272;23;20005;-95
2022/12/09 09:44:39;;;;;;;1.27;0.93;;;;;;;4.26;100.00;98862.81;6116643;23;20021;-94
2022/12/09 09:47:18;;;;;;;1.60;1.27;;;;;;;4.44;100.00;98891.47;6121392;23;20133;-96
2022/12/09 09:49:54;;;;;;;0.45;0.45;;;;;;;4.29;100.00;98829.06;6120164;23;20061;-96
2022/12/09 09:52:22;;;;;;;0.50;0.50;;;;;;;4.48;100.00;98864.72;6121108;23;20101;-95
2022/12/09 09:54:49;;;;;;;0.52;0.52;;;;;;;4.26;100.00;98822.41;6123732;23;20052;-96
2022/12/09 09:57:47;;;;;;;0.40;0.40;;;;;;;4.25;100.00;98817.38;6127227;23;19997;-96
2022/12/09 10:00:24;;;;;;;0.85;0.85;;;;;;;4.55;100.00;98853.56;6126666;23;20013;-95
2022/12/09 10:02:59;;;;;;;0.60;0.60;;;;;;;4.32;100.00;98809.75;6123203;23;20010;-96
2022/12/09 10:05:31;;;;;;;2.03;1.40;;;;;;;4.42;100.00;98813.44;6089921;23;20061;-96
2022/12/09 10:08:31;;;;;;;0.75;0.65;;;;;;;4.57;100.00;98839.44;6088861;23;20010;-96
2022/12/09 10:11:15;;;;;;;1.83;1.73;;;;;;;4.58;100.00;98836.25;6112979;23;20020;-95
2022/12/09 10:13:57;;;;;;;1.17;1.02;;;;;;;4.35;100.00;98802.63;6103988;23;20105;-94
2022/12/09 10:16:44;;;;;;;0.57;0.57;;;;;;;4.65;100.00;98832.59;6080749;23;20093;-95
2022/12/09 10:22:23;;;;;;;2.13;1.92;;;;;;;4.38;100.00;98816.28;6161129;23;20092;-95
2022/12/09 10:24:58;;;;;;;0.77;0.43;;;;;;;4.51;100.00;98828.16;6086541;23;20033;-96
2022/12/09 10:27:32;;;;;;;0.47;0.47;;;;;;;4.68;100.00;98846.22;6116896;23;20076;-96
2022/12/09 10:30:16;;;;;;;1.85;1.17;;;;;;;4.39;100.00;98801.34;6118529;23;20065;-96
2022/12/09 10:32:46;;;;;;;3.03;2.78;;;;;;;4.45;100.00;98805.13;6124053;23;20026;-96
2022/12/09 10:35:24;;;;;;;1.52;0.85;;;;;;;4.39;100.00;98764.88;6123363;23;20021;-95
2022/12/09 10:37:54;;;;;;;6.93;2.33;;;;;;;4.58;100.00;98789.56;6102991;23;20010;-96
2022/12/09 10:40:47;;;;;;;0.45;0.45;;;;;;;4.59;100.00;98790.34;6127000;23;20013;-96
2022/12/09 10:43:40;;;;;;;0.50;0.50;;;;;;;4.68;100.00;98796.00;6148124;23;20108;-96
2022/12/09 10:46:23;;;;;;;2.53;1.27;;;;;;;4.62;100.00;98794.97;6123879;23;20041;-96
2022/12/09 10:48:49;;;;;;;1.85;1.75;;;;;;;4.62;100.00;98795.75;6146538;23;20108;-95
2022/12/09 10:51:29;;;;;;;0.65;0.65;;;;;;;4.52;100.00;98780.28;6139751;23;20009;-93
2022/12/09 10:53:57;;;;;;;0.50;0.50;;;;;;;4.50;100.00;98779.16;6081718;23;20017;-94
2022/12/09 10:56:34;;;;;;;0.63;0.63;;;;;;;4.47;100.00;98763.53;6080097;23;20016;-95
2022/12/09 10:59:17;;;;;;;2.05;1.92;;;;;;;4.52;100.00;98777.53;6094667;23;20085;-94
2022/12/09 11:01:58;;;;;;;2.00;1.00;;;;;;;4.51;100.00;98778.72;6079257;23;20443;-95
2022/12/09 11:04:31;;;;;;;1.40;1.30;;;;;;;4.56;100.00;98772.75;6078357;23;20022;-94
2022/12/09 11:07:09;;;;;;;1.70;1.50;;;;;;;4.63;100.00;98771.78;6102733;23;20042;-95
2022/12/09 11:09:56;;;;;;;1.05;1.05;;;;;;;4.63;100.00;98774.53;6098674;23;20261;-95
2022/12/09 11:12:25;;;;;;;1.33;1.23;;;;;;;4.61;100.00;98752.97;6095725;23;20032;-95
2022/12/09 11:14:58;;;;;;;2.47;2.28;;;;;;;4.56;100.00;98752.75;6101056;23;20022;-93
2022/12/09 11:17:29;;;;;;;0.85;0.85;;;;;;;4.56;100.00;98750.78;6098126;23;20053;-94
2022/12/09 11:20:03;;;;;;;1.08;0.90;;;;;;;4.60;100.00;98739.69;6098274;23;20029;-94
2022/12/09 11:22:40;;;;;;;0.28;0.28;;;;;;;4.56;100.00;98736.25;6095818;23;20022;-94
2022/12/09 11:25:14;;;;;;;1.10;1.08;;;;;;;4.51;100.00;98732.06;6121621;23;20275;-94
2022/12/09 11:27:47;;;;;;;0.90;0.90;;;;;;;4.55;100.00;98738.22;6103057;23;20074;-93
2022/12/09 11:30:38;;;;;;;2.25;0.88;;;;;;;4.52;100.00;98739.09;6057723;23;20020;-95
2022/12/09 11:33:34;;;;;;;2.33;1.75;;;;;;;4.57;100.00;98724.84;6092743;23;20037;-93
2022/12/09 11:36:02;;;;;;;0.77;0.77;;;;;;;4.54;100.00;98728.44;6078509;23;20021;-93
2022/12/09 13:22:58;;;;;;;2.50;2.30;;;;;;;4.89;100.00;98627.16;6151896;23;20109;-95
2022/12/09 13:25:35;;;;;;;6.35;3.25;;;;;;;4.90;100.00;98631.41;6102844;23;20021;-95
2022/12/09 13:28:06;;;;;;;0.63;0.63;;;;;;;4.87;100.00;98622.06;6127286;23;20343;-94
2022/12/09 13:30:39;;;;;;;3.78;2.97;;;;;;;4.74;100.00;98598.47;6102923;23;20036;-95
2022/12/09 13:33:41;;;;;;;2.33;1.90;;;;;;;4.76;100.00;98604.31;6105206;23;20009;-96
2022/12/09 13:36:14;;;;;;;3.95;2.30;;;;;;;4.63;100.00;98574.81;6128552;23;20025;-95
2022/12/09 13:38:41;;;;;;;4.03;3.58;;;;;;;4.70;100.00;98580.13;6127343;23;20025;-94
2022/12/09 13:41:25;;;;;;;3.45;2.15;;;;;;;4.94;100.00;98619.13;6102337;23;20019;-93
2022/12/09 13:44:11;;;;;;;1.77;1.67;;;;;;;4.88;100.00;98595.38;6125659;23;20018;-95
2022/12/09 13:46:37;;;;;;;2.78;2.20;;;;;;;4.75;100.00;98576.09;6103324;23;20100;-95
2022/12/09 13:49:16;;;;;;;2.90;2.70;;;;;;;4.91;100.00;98600.00;6104144;23;20087;-95
2022/12/09 13:51:50;;;;;;;3.33;2.22;;;;;;;4.81;100.00;98574.38;6104064;23;20017;-96
2022/12/09 13:54:18;;;;;;;2.47;1.65;;;;;;;4.70;100.00;98566.38;6104673;23;20024;-96
2022/12/09 13:57:03;;;;;;;1.45;1.35;;;;;;;4.84;100.00;98567.22;6103521;23;20035;-96
2022/12/09 14:00:03;;;;;;;0.38;0.38;;;;;;;4.81;100.00;98568.09;6128618;23;20017;-96
2022/12/09 14:02:39;;;;;;;2.45;1.85;;;;;;;4.91;100.00;98583.50;6060621;23;20364;-93
2022/12/09 14:05:34;;;;;;;1.45;1.38;;;;;;;4.84;100.00;98557.00;6095405;23;20032;-92
2022/12/09 14:08:18;;;;;;;2.15;2.05;;;;;;;4.82;100.00;98555.88;6077428;23;20045;-91
2022/12/09 14:10:46;;;;;;;1.15;1.10;;;;;;;4.96;100.00;98578.25;6093089;23;20014;-92
2022/12/09 14:13:21;;;;;;;1.75;1.52;;;;;;;4.93;100.00;98575.63;6093719;23;21718;-92
2022/12/09 14:15:47;;;;;;;1.77;1.65;;;;;;;4.76;100.00;98554.88;6094249;23;20037;-93
2022/12/09 14:18:33;;;;;;;3.10;1.98;;;;;;;4.94;100.00;98577.13;6070747;23;20068;-91
2022/12/09 14:21:17;;;;;;;1.67;1.58;;;;;;;4.98;100.00;98584.09;6120221;23;20121;-95
2022/12/09 14:24:01;;;;;;;;;;;;;;;4.95;100.00;98586.94;6113857;23;20026;-95
2022/12/09 14:26:44;;;;;;;1.88;1.77;;;;;;;4.67;100.00;98539.03;6130810;23;19913;-96
2022/12/09 14:29:10;;;;;;;1.98;1.88;;;;;;;4.70;100.00;98536.19;6124513;23;20365;-96
2022/12/09 14:31:54;;;;;;;1.05;0.98;;;;;;;4.92;100.00;98554.84;6102183;23;20069;-96
2022/12/09 14:34:25;;;;;;;1.10;1.10;;;;;;;4.83;100.00;98532.72;6097809;23;20155;-96
2022/12/09 14:36:58;;;;;;;3.03;2.60;;;;;;;4.85;100.00;98538.56;6123236;23;20053;-95
2022/12/09 14:39:31;;;;;;;2.00;1.85;;;;;;;4.95;100.00;98545.72;6120437;23;20014;-95
2022/12/09 14:42:01;;;;;;;2.53;2.33;;;;;;;4.98;100.00;98536.59;6072681;23;20018;-92
2022/12/09 14:44:53;;;;;;;4.78;2.20;;;;;;;4.98;100.00;98533.84;6118443;23;20018;-92
2022/12/09 14:47:22;;;;;;;3.95;2.08;;;;;;;4.98;100.00;98522.84;6083907;23;20018;-90
2022/12/09 14:49:48;;;;;;;2.78;2.33;;;;;;;4.97;100.00;98521.34;6069253;23;20369;-92
2022/12/09 14:52:23;;;;;;;3.85;2.30;;;;;;;4.92;100.00;98513.63;6117312;23;20085;-93
2022/12/09 14:54:51;;;;;;;2.47;2.13;;;;;;;4.76;100.00;98475.22;6092705;23;20022;-92
2022/12/09 14:57:37;;;;;;;1.60;1.50;;;;;;;5.03;100.00;98506.59;6118867;23;20010;-95
2022/12/09 15:00:23;;;;;;;2.40;2.05;;;;;;;4.90;100.00;98488.53;6096301;23;20018;-89
2022/12/09 15:02:50;;;;;;;1.05;0.73;;;;;;;4.93;100.00;98487.69;6120301;23;20352;-91
2022/12/09 15:05:16;;;;;;;1.65;1.55;;;;;;;4.82;100.00;98459.72;6119182;23;20030;-92
2022/12/09 15:07:43;;;;;;;1.00;0.95;;;;;;;4.99;100.00;98496.91;6119711;23;20457;-92
2022/12/09 15:10:41;;;;;;;1.95;1.85;;;;;;;4.88;100.00;98463.50;6119649;23;20084;-92
2022/12/09 15:13:08;;;;;;;0.43;0.43;;;;;;;4.88;100.00;98452.50;6048733;23;20473;-92
2022/12/09 15:15:37;;;;;;;2.10;1.38;;;;;;;4.91;100.00;98446.13;6095541;23;20049;-92
2022/12/09 15:18:06;;;;;;;2.92;2.72;;;;;;;4.95;100.00;98446.78;6124596;23;20445;-92
2022/12/09 15:20:35;;;;;;;3.85;2.40;;;;;;;4.95;100.00;98430.31;6121073;23;20014;-92
2022/12/09 15:23:07;;;;;;;4.18;2.72;;;;;;;5.07;100.00;98437.78;6121122;23;20072;-92
2022/12/09 15:25:41;;;;;;;1.52;1.50;;;;;;;5.03;100.00;98417.91;6096483;23;20021;-93
2022/12/09 15:28:18;;;;;;;2.15;1.92;;;;;;;5.13;100.00;98438.81;6094333;23;20018;-92
2022/12/09 15:30:44;;;;;;;4.65;4.07;;;;;;;5.08;100.00;98411.88;6095681;23;20014;-93
2022/12/09 15:33:15;;;;;;;4.72;3.03;;;;;;;5.19;100.00;98417.78;6118793;23;20736;-93
2022/12/09 15:35:42;;;;;;;1.40;1.35;;;;;;;5.08;100.00;98393.41;6123215;23;20018;-93
2022/12/09 15:38:08;;;;;;;2.47;2.33;;;;;;;4.99;100.00;98376.03;6101863;23;20073;-95
2022/12/09 15:40:36;;;;;;;3.97;3.67;;;;;;;5.19;100.00;98409.56;6101708;23;20014;-95
2022/12/09 15:43:08;;;;;;;5.63;1.85;;;;;;;5.04;100.00;98389.22;6099575;23;20002;-95
2022/12/09 15:45:35;;;;;;;1.52;1.38;;;;;;;5.05;100.00;98382.53;6080469;23;20068;-96
2022/12/09 15:48:06;;;;;;;1.58;1.50;;;;;;;4.98;100.00;98356.00;6103208;23;20033;-95
2022/12/09 15:50:40;;;;;;;4.53;2.28;;;;;;;5.00;100.00;98364.59;6131147;23;20025;-96
2022/12/09 15:53:54;;;;;;;3.75;3.45;;;;;;;5.25;100.00;98396.03;6108193;23;20093;-95
2022/12/09 15:56:26;;;;;;;3.07;2.57;;;;;;;5.08;100.00;98370.63;6122274;23;20104;-95
2022/12/09 15:58:54;;;;;;;1.95;1.85;;;;;;;5.08;100.00;98381.63;6110902;23;20605;-95
2022/12/09 16:01:24;;;;;;;2.80;2.60;;;;;;;5.01;100.00;98351.63;6102935;23;20014;-95
2022/12/09 16:03:52;;;;;;;2.58;2.38;;;;;;;4.99;100.00;98338.31;6127495;23;20026;-96
2022/12/09 16:06:28;;;;;;;3.22;2.15;;;;;;;5.08;100.00;98360.41;6126772;23;20337;-94
2022/12/09 16:08:54;;;;;;;2.97;2.78;;;;;;;5.18;100.00;98366.78;6076523;23;20017;-94
2022/12/09 16:11:41;;;;;;;8.65;3.10;;;;;;;5.18;100.00;98366.78;6099008;23;20523;-95
2022/12/09 16:14:08;;;;;;;5.28;3.83;;;;;;;5.27;100.00;98375.13;6074509;23;20044;-91
2022/12/09 16:16:50;;;;;;;2.22;2.05;;;;;;;5.24;100.00;98362.28;6122541;23;20767;-94
2022/12/09 16:19:29;;;;;;;2.08;1.98;;;;;;;5.28;100.00;98360.19;6124531;23;20018;-94
2022/12/09 16:21:58;;;;;;;2.95;2.30;;;;;;;5.30;100.00;98368.75;6100132;23;20022;-94
2022/12/09 16:24:24;;;;;;;0.88;0.88;;;;;;;5.32;100.00;98362.81;6123972;23;20028;-95
2022/12/09 16:26:51;;;;;;;5.32;4.20;;;;;;;5.19;100.00;98351.81;6075960;23;20014;-94
2022/12/09 16:29:32;;;;;;;2.35;2.25;;;;;;;5.26;100.00;98345.34;6100368;23;20018;-94
2022/12/09 16:32:13;;;;;;;4.65;2.92;;;;;;;5.39;100.00;98366.09;6100791;23;20010;-95
2022/12/09 16:34:42;;;;;;;1.67;1.58;;;;;;;5.24;100.00;98351.28;6125965;23;20022;-93
2022/12/09 16:37:30;;;;;;;3.58;3.28;;;;;;;5.42;100.00;98359.69;6074002;23;20018;-92
2022/12/09 16:39:57;;;;;;;3.13;1.25;;;;;;;5.45;100.00;98358.84;6103590;23;20026;-92
2022/12/09 16:42:29;;;;;;;4.78;3.70;;;;;;;5.48;100.00;98363.44;6099798;23;20013;-94
2022/12/09 16:45:23;;;;;;;3.83;2.08;;;;;;;5.31;100.00;98344.78;6120739;23;20017;-92
2022/12/09 16:47:53;;;;;;;4.32;3.97;;;;;;;5.45;100.00;98364.34;6088673;23;20019;-93
2022/12/09 16:50:20;;;;;;;3.42;3.22;;;;;;;5.38;100.00;98348.06;6097773;23;20395;-92
2022/12/09 16:52:46;;;;;;;0.75;0.75;;;;;;;5.52;100.00;98366.84;6099294;23;20005;-93
2022/12/09 16:55:22;;;;;;;3.15;2.88;;;;;;;5.45;100.00;98356.09;6100895;23;20033;-95
2022/12/09 16:57:49;;;;;;;2.88;1.45;;;;;;;5.56;100.00;98359.25;6101664;23;20018;-93
2022/12/09 17:00:16;;;;;;;3.42;2.47;;;;;;;5.60;100.00;98354.41;6100826;23;20425;-94
2022/12/09 17:02:57;;;;;;;4.47;4.10;;;;;;;5.49;100.00;98343.00;6110200;23;20344;-93
2022/12/09 17:05:23;;;;;;;2.20;2.10;;;;;;;5.56;100.00;98337.25;6090756;23;20048;-94
2022/12/09 17:07:49;;;;;;;0.77;0.75;;;;;;;5.56;100.00;98337.25;6077275;23;20009;-93
2022/12/09 17:10:16;;;;;;;5.40;3.65;;;;;;;5.43;100.00;98311.75;6125238;23;20048;-93
2022/12/09 17:12:43;;;;;;;4.75;2.58;;;;;;;5.46;100.00;98315.63;6123765;23;20005;-94
2022/12/09 17:15:15;;;;;;;2.50;2.30;;;;;;;5.63;100.00;98327.97;6123342;23;20352;-95
2022/12/09 17:17:42;;;;;;;2.33;2.17;;;;;;;5.55;100.00;98324.69;6123477;23;20045;-93
2022/12/09 17:20:09;;;;;;;2.33;2.15;;;;;;;5.58;100.00;98326.56;6118932;23;20065;-93
2022/12/09 17:22:35;;;;;;;2.97;2.72;;;;;;;5.51;100.00;98315.81;6121669;23;20018;-94
2022/12/09 17:25:11;;;;;;;2.05;1.95;;;;;;;5.66;100.00;98315.34;6130352;23;20014;-91
2022/12/09 17:27:43;;;;;;;3.70;1.92;;;;;;;5.63;100.00;98308.72;6104001;23;20046;-93
